Terminal Aerodrome Forecast
Issued by NWS

Home | Current Version | Previous Version | Graphics & Text | Print | Product List | Glossary On
Versions: 1 2 3 4 5 6 7 8 9 10 11 12 13 14 15 16 17 18 19 20 21 22 23 24 25
000
FTUS43 KBIS 250700 AAA
TAFMOT
TAF AMD
KMOT 250713Z 2507/2606 02009KT P6SM -TSRA BKN010 OVC020CB
     FM250900 28015KT P6SM SCT050
     FM251800 26019G26KT P6SM SKC
     FM260200 23010KT P6SM SKC=

USA.gov is the U.S. government's official web portal to all federal, state and local government web resources and services.